Donna Nook, United Kingdom
Current Conditions -  °F | °C
As of 12:50 AM on Saturday 29 Nov 2014 (Local Time) from EGXS Reporting Station
Broken Clouds Broken Clouds  
Wind Chill: 50°   Ceiling: 1000
Heat Index: 50°   Visibility: 3mi
Dew Point: 48°   Wind: 14mph
Humidity: 94%   Direction: 80°E
Pressure: 29.83"   Gusts: NA
Location:  53.47°N, 0.15°E
Report Text: EGXS 290050Z AUTO 08012KT 4800 // BKN010/// BKN140/// 10/09 Q1010
Loading
Personal Weather Stations






























Interactive Weather Map New forecast layout! Learn more

10-Day Weather Forecast

Advertisements
Track Severe Weather on mobile